Alpena, MI

11:09 PM EDT on August 30, 2015 (GMT -0400)
APRSWXNET | | Change Station
CLOSE
Current Station
Personal Weather Station
Location: Alpena, MI
Elevation: 593 ft
Nearby Weather Stations

Elev 593 ft 45.05 °N, 83.45 °W | Updated 29 minutes ago

Clear
Clear
62 °F
Feels Like 62 °F
N
0
Wind Variable Wind from ENE
Gusts 0.0 mph

Today
High -- | Low -- °F
--% Chance of Precip.
Yesterday
High -- | Low -- °F
Precip. -- in
6:53 AM 8:15 PM
Full, 97% visible
Pressure 29.99 in
Visibility 8.0 miles
Clouds Clear
Dew Point 61 °F
Humidity 96%
Rainfall in
Snow Depth Not available.
UV 0 out of 12
Pollen 10.10 out of 12
Air Quality Not available.
Flu Activity Not available.
METAR KAPN 310254Z AUTO 00000KT 8SM CLR 17/16 A2999 RMK AO2 SLP155 T01670156 53007
Pressure 29.99 in
Visibility 8.0 miles
Clouds Clear
Dew Point 61 °F
Humidity 96%
Rainfall in
Snow Depth Not available.
UV 0 out of 12
Pollen 10.10 out of 12
Air Quality Not available.
Flu Activity Not available.
METAR KAPN 310254Z AUTO 00000KT 8SM CLR 17/16 A2999 RMK AO2 SLP155 T01670156 53007
Nowcast | as of 11:00 PM EDT on August 30, 2015

At 12 am...mostly clear. Temperature 65. Light winds. At 2 am...clear. Patchy fog. Temperature 64. Light winds. At 4 am...mostly clear. Patchy fog. Temperature 62. Light winds. At 6 am...mostly clear. Patchy fog. Temperature 62. Light winds.

×

10-Day Weather Forecast

×

Almanac

Astronomy

Aug. 30, 2015 Rise Set
Actual Time
Civil Twilight
Nautical Twilight
Astronomical Twilight
Moon
Length of Visible Light
Length of Day
Tomorrow will be .
, % of the Moon is Illuminated

Today's Extremes

State Highs State Lows

Community

WunderPhotos

Upload Photos

1,851,166 photos uploaded!

WunderBlogs® & News

Nearby

Air Quality

  Air Quality AQ Index Pollutant
Not available.

Snow Depth

Station Depth Elevation

Earthquake Activity

City Distance Mag. Time & Date
Minimum magnitude displayed is 2.5.

Coastal Water Temperatures

Place Temperature

Stations

Nearby Weather Stations

Station Location Temp. Windchill Dew Point Humidity Wind Precip. Elev Updated Type